Time;durP1;ratioP1;P1;durP2;ratioP2;P2;SDS_P1;SDS_P2;PMS_P1;PMS_P2;Temp;Humidity;BMP_temperature;BMP_pressure;BME280_temperature;BME280_humidity;BME280_pressure;Samples;Min_cycle;Max_cycle;Signal;HPM_P1;HPM_P2
2022/11/06 00:01:30;;;;;;;10.23;4.53;;;9.80;99.90;;;;;;5076878;28;20390;-29
2022/11/06 00:03:56;;;;;;;8.50;4.53;;;9.80;99.90;;;;;;5076303;28;20041;-29
2022/11/06 00:09:09;;;;;;;12.98;5.97;;;9.70;99.90;;;;;;5076132;28;20114;-27
2022/11/06 00:11:35;;;;;;;8.20;4.68;;;9.60;99.90;;;;;;5076157;28;20040;-27
2022/11/06 00:14:02;;;;;;;10.75;4.82;;;9.60;99.90;;;;;;5076114;28;20131;-28
2022/11/06 00:16:28;;;;;;;10.27;5.43;;;9.50;99.90;;;;;;5074642;28;20044;-28
2022/11/06 00:18:54;;;;;;;12.57;5.15;;;9.50;99.90;;;;;;5076068;28;20041;-28
2022/11/06 00:21:23;;;;;;;7.95;4.82;;;9.50;99.90;;;;;;5076052;28;20093;-28
2022/11/06 00:23:50;;;;;;;10.57;6.72;;;9.40;99.90;;;;;;5076002;28;20049;-29
2022/11/06 00:26:22;;;;;;;11.48;6.75;;;9.40;99.90;;;;;;5075994;28;20502;-28
2022/11/06 00:28:48;;;;;;;15.15;8.15;;;9.30;99.90;;;;;;5076166;28;20398;-29
2022/11/06 00:31:17;;;;;;;10.45;5.97;;;9.30;99.90;;;;;;5075824;28;20055;-29
2022/11/06 00:33:43;;;;;;;11.48;6.53;;;9.20;99.90;;;;;;5076361;28;20478;-28
2022/11/06 00:36:15;;;;;;;16.85;8.18;;;9.10;99.90;;;;;;5075755;28;20044;-29
2022/11/06 00:38:41;;;;;;;12.98;6.45;;;9.10;99.90;;;;;;5074778;28;20053;-29
2022/11/06 00:41:09;;;;;;;13.50;7.68;;;9.00;99.90;;;;;;5075630;28;20051;-29
2022/11/06 00:43:35;;;;;;;13.05;7.95;;;9.10;99.90;;;;;;5075523;28;20044;-29
2022/11/06 00:46:12;;;;;;;13.80;7.78;;;9.10;99.90;;;;;;5074613;28;20054;-30
2022/11/06 00:48:39;;;;;;;15.30;8.45;;;9.00;99.90;;;;;;5076305;28;20105;-30
2022/11/06 00:51:14;;;;;;;22.00;9.75;;;9.00;99.90;;;;;;5074470;28;20049;-30
2022/11/06 00:53:41;;;;;;;22.23;10.13;;;9.00;99.90;;;;;;5075419;28;20049;-30
2022/11/06 00:56:11;;;;;;;14.13;7.65;;;9.00;99.90;;;;;;5073987;28;20048;-32
2022/11/06 00:58:37;;;;;;;21.38;10.38;;;9.10;99.90;;;;;;5075768;28;20513;-32
2022/11/06 01:01:07;;;;;;;16.20;9.18;;;9.10;99.90;;;;;;5075069;28;20105;-31
2022/11/06 01:03:33;;;;;;;15.35;8.18;;;9.00;99.90;;;;;;5075153;28;20048;-31
2022/11/06 01:06:10;;;;;;;13.27;8.20;;;9.00;99.90;;;;;;5075179;28;20059;-32
2022/11/06 01:08:36;;;;;;;15.95;9.45;;;9.00;99.90;;;;;;5074937;28;20040;-31
2022/11/06 01:11:13;;;;;;;11.95;7.03;;;9.00;99.90;;;;;;5075036;28;20247;-30
2022/11/06 01:13:40;;;;;;;14.63;8.95;;;8.90;99.90;;;;;;5075043;28;20049;-30
2022/11/06 01:16:10;;;;;;;19.67;10.73;;;8.90;99.90;;;;;;5057151;28;20051;-31
2022/11/06 01:18:36;;;;;;;16.98;9.63;;;9.00;99.90;;;;;;5058128;28;20088;-33
2022/11/06 01:21:11;;;;;;;14.20;9.63;;;9.00;99.90;;;;;;5074839;28;20101;-30
2022/11/06 01:23:37;;;;;;;14.70;8.70;;;8.90;99.90;;;;;;5075451;28;20044;-31
2022/11/06 01:26:05;;;;;;;15.05;10.23;;;9.00;99.90;;;;;;5074015;28;20059;-30
2022/11/06 01:28:31;;;;;;;21.58;9.60;;;9.00;99.90;;;;;;5073601;28;20050;-30
2022/11/06 01:31:06;;;;;;;19.08;9.18;;;9.00;99.90;;;;;;5074613;28;20482;-31
2022/11/06 01:33:32;;;;;;;16.58;9.65;;;9.00;99.90;;;;;;5074635;28;20055;-32
2022/11/06 01:35:57;;;;;;;16.17;9.45;;;9.00;99.90;;;;;;5074522;28;20041;-32
2022/11/06 01:38:23;;;;;;;16.85;10.48;;;8.90;99.90;;;;;;5074496;28;20041;-31
2022/11/06 01:40:49;;;;;;;19.02;10.65;;;8.90;99.90;;;;;;5073499;28;20045;-31
2022/11/06 01:43:21;;;;;;;24.13;11.57;;;9.00;99.90;;;;;;5074428;28;20056;-32
2022/11/06 01:45:54;;;;;;;17.67;8.82;;;9.00;99.90;;;;;;5074356;28;20482;-31
2022/11/06 01:48:24;;;;;;;12.77;9.20;;;9.00;99.90;;;;;;5074817;28;20564;-30
2022/11/06 01:50:55;;;;;;;20.60;12.73;;;8.90;99.90;;;;;;5075120;28;20402;-32
2022/11/06 01:53:23;;;;;;;23.45;13.02;;;8.90;99.90;;;;;;5056662;28;20523;-32
2022/11/06 01:55:52;;;;;;;21.23;11.70;;;9.00;99.90;;;;;;5072974;28;20052;-33
2022/11/06 01:58:21;;;;;;;20.15;12.25;;;8.90;99.90;;;;;;5074271;28;20467;-31
2022/11/06 02:00:47;;;;;;;16.15;10.25;;;8.90;99.90;;;;;;5072907;28;20067;-32
2022/11/06 02:03:13;;;;;;;20.15;12.18;;;9.00;99.90;;;;;;5073051;28;20494;-30
2022/11/06 02:05:40;;;;;;;23.85;12.18;;;9.00;99.90;;;;;;5074079;28;20083;-32
2022/11/06 02:08:11;;;;;;;16.75;11.25;;;9.00;99.90;;;;;;5074185;28;20056;-30
2022/11/06 02:10:37;;;;;;;17.13;10.93;;;9.00;99.90;;;;;;5074738;28;20051;-33
2022/11/06 02:13:12;;;;;;;16.80;12.15;;;9.10;99.90;;;;;;5073887;28;20057;-32
2022/11/06 02:16:00;;;;;;;19.13;12.02;;;9.00;99.90;;;;;;5073563;28;20052;-32
2022/11/06 02:18:26;;;;;;;16.23;11.48;;;9.00;99.90;;;;;;5073904;28;20048;-32
2022/11/06 02:21:08;;;;;;;23.92;13.75;;;9.00;99.90;;;;;;5073865;28;20113;-32
2022/11/06 02:23:37;;;;;;;18.50;12.85;;;9.00;99.90;;;;;;5074721;28;20044;-32
2022/11/06 02:26:50;;;;;;;20.08;12.55;;;9.00;99.90;;;;;;5055806;28;20139;-33
2022/11/06 02:29:44;;;;;;;16.02;11.40;;;9.10;99.90;;;;;;5067852;28;20052;-34
2022/11/06 02:32:32;;;;;;;19.20;14.43;;;9.00;99.90;;;;;;5072749;28;20045;-33
2022/11/06 02:35:02;;;;;;;20.65;13.50;;;9.00;99.90;;;;;;5073418;28;20487;-34
2022/11/06 02:37:31;;;;;;;11.32;7.43;;;9.10;99.90;;;;;;5073786;28;20106;-33
2022/11/06 02:40:01;;;;;;;23.30;13.23;;;9.00;99.90;;;;;;5073251;28;20123;-33
2022/11/06 02:42:29;;;;;;;23.60;14.20;;;9.10;99.90;;;;;;5073198;28;20044;-34
2022/11/06 02:44:56;;;;;;;16.85;11.07;;;9.00;99.90;;;;;;5072359;28;20494;-33
2022/11/06 02:47:25;;;;;;;21.48;11.90;;;9.10;99.90;;;;;;5073545;28;20071;-33
2022/11/06 02:50:05;;;;;;;16.30;11.98;;;9.10;99.90;;;;;;5073432;28;20498;-32
2022/11/06 02:52:54;;;;;;;22.98;13.38;;;9.20;99.90;;;;;;5074347;28;20045;-34
2022/11/06 02:55:26;;;;;;;21.52;14.63;;;9.20;99.90;;;;;;5071837;28;20109;-31
2022/11/06 02:57:59;;;;;;;22.25;16.27;;;9.20;99.90;;;;;;5073366;28;20064;-35
2022/11/06 03:00:26;;;;;;;21.02;14.45;;;9.20;99.90;;;;;;5072811;28;20056;-33
2022/11/06 03:02:54;;;;;;;22.75;13.30;;;9.20;99.90;;;;;;5073001;28;20391;-34
2022/11/06 03:05:27;;;;;;;23.67;14.38;;;9.30;99.90;;;;;;5073379;28;20549;-33
2022/11/06 03:08:16;;;;;;;19.95;14.07;;;9.30;99.90;;;;;;5073705;28;20401;-33
2022/11/06 03:10:57;;;;;;;18.48;13.70;;;9.30;99.90;;;;;;5068246;28;20509;-34
2022/11/06 03:13:45;;;;;;;19.75;13.75;;;9.30;99.90;;;;;;5073237;28;20105;-34
2022/11/06 03:16:28;;;;;;;26.38;16.20;;;9.30;99.90;;;;;;5073911;28;20090;-34
2022/11/06 03:19:10;;;;;;;18.02;12.07;;;9.30;99.90;;;;;;5073890;28;20093;-34
2022/11/06 03:21:47;;;;;;;17.95;12.65;;;9.40;99.90;;;;;;5073351;28;20139;-35
2022/11/06 03:24:24;;;;;;;18.95;10.65;;;9.30;99.90;;;;;;5055856;28;20479;-34
2022/11/06 03:26:52;;;;;;;19.95;13.55;;;9.30;99.90;;;;;;5073275;28;20057;-33
2022/11/06 03:29:37;;;;;;;19.00;13.70;;;9.40;99.90;;;;;;5073099;28;20039;-34
2022/11/06 03:32:44;;;;;;;17.63;13.18;;;9.30;99.90;;;;;;5073161;28;20052;-34
2022/11/06 03:35:41;;;;;;;21.63;14.57;;;9.40;99.90;;;;;;5070853;28;20549;-33
2022/11/06 03:38:34;;;;;;;18.17;12.98;;;9.40;99.90;;;;;;5030044;28;20048;-33
2022/11/06 03:41:26;;;;;;;18.35;12.95;;;9.40;99.90;;;;;;5069718;28;20060;-35
2022/11/06 03:43:55;;;;;;;20.55;13.30;;;9.50;99.90;;;;;;5072722;28;20537;-35
2022/11/06 03:46:23;;;;;;;17.48;12.00;;;9.40;99.90;;;;;;5072989;28;20088;-34
2022/11/06 03:48:56;;;;;;;20.50;14.15;;;9.40;99.90;;;;;;5072953;28;20053;-34
2022/11/06 03:51:40;;;;;;;21.73;13.27;;;9.50;99.90;;;;;;5073404;28;20079;-34
2022/11/06 03:54:10;;;;;;;;;;;9.50;99.90;;;;;;5077554;28;20397;-34
2022/11/06 03:56:43;;;;;;;17.38;11.05;;;9.50;99.90;;;;;;5058654;28;20354;-37
2022/11/06 03:59:12;;;;;;;20.25;13.85;;;9.50;99.90;;;;;;5076516;28;20049;-35
2022/11/06 04:01:43;;;;;;;20.00;13.63;;;9.50;99.90;;;;;;5076403;28;20051;-35
2022/11/06 04:04:12;;;;;;;19.08;13.07;;;9.50;99.90;;;;;;5076249;28;20463;-33
2022/11/06 04:07:01;;;;;;;18.27;11.68;;;9.50;99.90;;;;;;5076305;28;20041;-33
2022/11/06 04:15:11;;;;;;;19.92;11.40;;;9.50;99.90;;;;;;5076843;28;20056;-34
2022/11/06 04:17:39;;;;;;;18.63;12.48;;;9.50;99.90;;;;;;5076153;28;20407;-36
2022/11/06 04:20:10;;;;;;;15.02;10.80;;;9.60;99.90;;;;;;5076059;28;20045;-34
2022/11/06 04:22:57;;;;;;;20.45;12.02;;;9.50;99.90;;;;;;5076053;28;20478;-33
2022/11/06 04:28:42;;;;;;;18.17;11.65;;;9.50;99.90;;;;;;5075311;28;20060;-34
2022/11/06 04:31:10;;;;;;;18.08;10.02;;;9.50;99.90;;;;;;5074807;28;20050;-34
2022/11/06 04:33:56;;;;;;;18.17;10.65;;;9.60;99.90;;;;;;5075842;28;20044;-34
2022/11/06 04:36:27;;;;;;;19.50;11.93;;;9.60;99.90;;;;;;5075835;28;20083;-35
2022/11/06 04:39:03;;;;;;;18.55;11.63;;;9.60;99.90;;;;;;5075763;28;20127;-34
2022/11/06 04:41:50;;;;;;;16.38;10.75;;;9.60;99.90;;;;;;5075721;28;20079;-35
2022/11/06 04:44:30;;;;;;;14.38;10.05;;;9.60;99.90;;;;;;5076254;28;20091;-33
2022/11/06 04:47:02;;;;;;;14.27;9.30;;;9.60;99.90;;;;;;5076412;28;20395;-34
2022/11/06 04:49:31;;;;;;;16.75;10.85;;;9.60;99.90;;;;;;5075716;28;20107;-33
2022/11/06 04:51:58;;;;;;;15.40;9.98;;;9.70;99.90;;;;;;5075976;28;20051;-33
2022/11/06 04:54:25;;;;;;;14.65;9.30;;;9.70;99.90;;;;;;5075395;28;20153;-33
2022/11/06 04:56:51;;;;;;;16.98;10.15;;;9.60;99.90;;;;;;5073934;28;20076;-33
2022/11/06 04:59:17;;;;;;;21.73;11.45;;;9.60;99.90;;;;;;5075378;28;20390;-33
2022/11/06 05:01:44;;;;;;;20.30;11.43;;;9.60;99.90;;;;;;5075057;28;20044;-32
2022/11/06 05:04:10;;;;;;;26.38;11.32;;;9.60;99.90;;;;;;5075283;28;20048;-33
2022/11/06 05:06:36;;;;;;;18.25;9.63;;;9.60;99.90;;;;;;5057544;28;20470;-32
2022/11/06 05:09:02;;;;;;;15.20;8.13;;;9.60;99.90;;;;;;5074946;28;20036;-33
2022/11/06 05:11:27;;;;;;;22.90;9.98;;;9.60;99.90;;;;;;5075023;28;20044;-32
2022/11/06 05:13:53;;;;;;;15.93;9.88;;;9.60;99.90;;;;;;5074078;28;20044;-35
2022/11/06 05:16:19;;;;;;;14.45;9.70;;;9.60;99.90;;;;;;5074938;28;20040;-32
2022/11/06 05:18:44;;;;;;;11.27;8.07;;;9.50;99.90;;;;;;5073715;28;20084;-32
2022/11/06 05:23:55;;;;;;;13.75;9.05;;;9.50;99.90;;;;;;5074859;28;20055;-31
2022/11/06 05:26:20;;;;;;;13.60;9.20;;;9.60;99.90;;;;;;5074743;28;20040;-32
2022/11/06 05:28:46;;;;;;;14.07;8.93;;;9.50;99.90;;;;;;5074616;28;20067;-32
2022/11/06 05:31:12;;;;;;;11.75;8.13;;;9.60;99.90;;;;;;5073988;28;20044;-33
2022/11/06 05:33:38;;;;;;;11.40;7.68;;;9.50;99.90;;;;;;5074605;28;20497;-32
2022/11/06 05:36:04;;;;;;;14.63;8.02;;;9.50;99.90;;;;;;5074595;28;20106;-33
2022/11/06 05:38:31;;;;;;;13.65;7.60;;;9.50;99.90;;;;;;5074529;28;20059;-33
2022/11/06 05:40:57;;;;;;;16.50;8.55;;;9.50;99.90;;;;;;5074162;28;20451;-34
2022/11/06 05:43:22;;;;;;;15.23;9.35;;;9.50;99.90;;;;;;5073262;28;20091;-33
2022/11/06 05:45:48;;;;;;;16.23;8.45;;;9.50;99.90;;;;;;5074350;28;20040;-33
2022/11/06 05:48:14;;;;;;;15.30;9.57;;;9.50;99.90;;;;;;5073217;28;20048;-32
2022/11/06 05:50:39;;;;;;;14.18;8.43;;;9.50;99.90;;;;;;5073063;28;20044;-33
2022/11/06 05:53:05;;;;;;;13.57;7.85;;;9.50;99.90;;;;;;5056688;28;20390;-32
2022/11/06 05:55:31;;;;;;;14.10;8.50;;;9.50;99.90;;;;;;5073101;28;20483;-31
2022/11/06 05:57:56;;;;;;;11.82;7.43;;;9.40;99.90;;;;;;5073805;28;20067;-32
2022/11/06 06:00:22;;;;;;;16.60;8.50;;;9.40;99.90;;;;;;5075002;28;20154;-32
2022/11/06 06:02:48;;;;;;;11.73;7.82;;;9.50;99.90;;;;;;5074124;28;20489;-32
2022/11/06 06:05:14;;;;;;;10.40;7.40;;;9.50;99.90;;;;;;5074611;28;20095;-33
2022/11/06 06:07:39;;;;;;;11.27;7.43;;;9.50;99.90;;;;;;5073963;28;20065;-31
2022/11/06 06:10:08;;;;;;;11.25;8.60;;;9.40;99.90;;;;;;5073956;28;20047;-33
2022/11/06 06:12:34;;;;;;;15.52;8.80;;;9.50;99.90;;;;;;5073248;28;20040;-32
2022/11/06 06:15:00;;;;;;;14.43;8.18;;;9.50;99.90;;;;;;5072221;28;20071;-31
2022/11/06 06:17:26;;;;;;;11.20;7.13;;;9.50;99.90;;;;;;5073977;28;20048;-32
2022/11/06 06:19:52;;;;;;;16.27;7.63;;;9.50;99.90;;;;;;5072929;28;20053;-32
2022/11/06 06:22:18;;;;;;;13.25;6.97;;;9.50;99.90;;;;;;5074086;28;20086;-31
2022/11/06 06:24:43;;;;;;;11.93;7.10;;;9.40;99.90;;;;;;5073139;28;20040;-30
2022/11/06 06:27:09;;;;;;;10.90;7.00;;;9.40;99.90;;;;;;5072544;28;20379;-31
2022/11/06 06:29:35;;;;;;;14.02;8.50;;;9.40;99.90;;;;;;5072568;28;20090;-32
2022/11/06 06:32:02;;;;;;;11.43;7.03;;;9.40;99.90;;;;;;5073945;28;20057;-32
2022/11/06 06:34:27;;;;;;;9.20;5.43;;;9.40;99.90;;;;;;5073669;28;20040;-31
2022/11/06 06:36:53;;;;;;;10.10;6.57;;;9.40;99.90;;;;;;5039185;28;20045;-30
2022/11/06 06:39:20;;;;;;;10.73;7.60;;;9.40;99.90;;;;;;5073638;28;20045;-31
2022/11/06 06:41:46;;;;;;;13.45;7.03;;;9.40;99.90;;;;;;5072664;28;20044;-32
2022/11/06 06:44:12;;;;;;;10.95;6.90;;;9.40;99.90;;;;;;5073587;28;20051;-32
2022/11/06 06:46:38;;;;;;;9.98;6.30;;;9.40;99.90;;;;;;5073573;28;20493;-30
2022/11/06 06:49:04;;;;;;;14.70;7.72;;;9.40;99.90;;;;;;5073468;28;20097;-30
2022/11/06 06:51:30;;;;;;;18.30;6.95;;;9.40;99.90;;;;;;5073569;28;20102;-31
2022/11/06 06:53:55;;;;;;;10.73;5.82;;;9.40;99.90;;;;;;5073550;28;20491;-31
2022/11/06 06:56:21;;;;;;;12.85;6.97;;;9.40;99.90;;;;;;5074005;28;20051;-31
2022/11/06 06:58:47;;;;;;;17.00;8.30;;;9.40;99.90;;;;;;5073291;28;20052;-33
2022/11/06 07:01:13;;;;;;;17.50;8.05;;;9.40;99.90;;;;;;5073438;28;20056;-33
2022/11/06 07:03:39;;;;;;;14.57;8.20;;;9.30;99.90;;;;;;5073448;28;20525;-31
2022/11/06 07:06:05;;;;;;;10.32;6.55;;;9.20;99.90;;;;;;5073341;28;20051;-31
2022/11/06 07:08:32;;;;;;;16.35;7.47;;;9.20;99.90;;;;;;5073291;28;20087;-30
2022/11/06 07:11:02;;;;;;;20.13;10.20;;;9.10;99.90;;;;;;5073267;28;20045;-32
2022/11/06 07:13:28;;;;;;;19.38;8.77;;;9.10;99.90;;;;;;5056033;28;20131;-32
2022/11/06 07:15:54;;;;;;;16.42;8.32;;;9.10;99.90;;;;;;5072165;28;20135;-32
2022/11/06 07:18:20;;;;;;;13.75;6.75;;;9.10;99.90;;;;;;5074119;28;20045;-33
2022/11/06 07:20:45;;;;;;;16.35;7.53;;;9.20;99.90;;;;;;5073243;28;20474;-33
2022/11/06 07:23:11;;;;;;;14.18;7.50;;;9.10;99.90;;;;;;5072874;28;20041;-33
2022/11/06 07:25:37;;;;;;;15.38;7.32;;;9.20;99.90;;;;;;5075264;28;20055;-33
2022/11/06 07:28:04;;;;;;;17.90;6.30;;;9.20;99.90;;;;;;5075857;28;20054;-32
2022/11/06 07:30:31;;;;;;;17.33;7.13;;;9.20;99.90;;;;;;5076922;28;20045;-33
2022/11/06 07:32:59;;;;;;;9.32;5.57;;;9.20;99.90;;;;;;5075778;28;20467;-32
2022/11/06 07:35:25;;;;;;;13.98;6.85;;;9.20;99.90;;;;;;5076879;28;20045;-32
2022/11/06 07:37:51;;;;;;;18.55;7.15;;;9.30;99.90;;;;;;5077384;28;20424;-32
2022/11/06 07:40:16;;;;;;;17.38;6.93;;;9.20;99.90;;;;;;5075811;28;20048;-33
2022/11/06 07:42:42;;;;;;;17.05;7.90;;;9.30;99.90;;;;;;5076761;28;20405;-39
2022/11/06 07:45:08;;;;;;;18.00;8.02;;;9.20;99.90;;;;;;5059351;28;20044;-35
2022/11/06 07:47:34;;;;;;;11.88;7.50;;;9.10;99.90;;;;;;5075487;28;20084;-38
2022/11/06 07:50:00;;;;;;;16.55;6.40;;;9.10;99.90;;;;;;5076538;28;20044;-35
2022/11/06 07:52:25;;;;;;;15.73;7.15;;;9.10;99.90;;;;;;5075118;28;20077;-39
2022/11/06 07:54:51;;;;;;;16.95;7.20;;;9.20;99.90;;;;;;5076570;28;20131;-39
2022/11/06 07:57:17;;;;;;;15.93;6.82;;;9.20;99.90;;;;;;5058851;28;20056;-39
2022/11/06 07:59:42;;;;;;;14.45;6.10;;;9.20;99.90;;;;;;5077027;28;20172;-39
2022/11/06 08:02:11;;;;;;;14.55;6.15;;;9.20;99.90;;;;;;5076386;28;20040;-39
2022/11/06 08:04:37;;;;;;;17.52;6.50;;;9.30;99.90;;;;;;5076377;28;20182;-41
2022/11/06 08:07:03;;;;;;;14.55;6.40;;;9.20;99.90;;;;;;5058627;28;20545;-39
2022/11/06 08:09:28;;;;;;;16.30;8.20;;;9.20;99.90;;;;;;5075024;28;20044;-40
2022/11/06 08:11:54;;;;;;;13.80;6.03;;;9.20;99.90;;;;;;5076308;28;20089;-40
2022/11/06 08:14:20;;;;;;;19.80;7.93;;;9.30;99.90;;;;;;5076476;28;20102;-41
2022/11/06 08:16:45;;;;;;;14.30;7.25;;;9.40;99.90;;;;;;5076178;28;20048;-42
2022/11/06 08:19:12;;;;;;;20.50;7.78;;;9.50;99.90;;;;;;5075027;28;20080;-43
2022/11/06 08:21:38;;;;;;;15.07;5.90;;;9.50;99.90;;;;;;5076900;28;20053;-42
2022/11/06 08:24:06;;;;;;;14.30;5.50;;;9.60;99.90;;;;;;5076016;28;20410;-42
2022/11/06 08:26:32;;;;;;;17.15;5.68;;;9.60;99.90;;;;;;5076002;28;20048;-42
2022/11/06 08:28:58;;;;;;;10.70;5.03;;;9.60;99.90;;;;;;5075844;28;20044;-42
2022/11/06 08:31:24;;;;;;;12.68;4.90;;;9.60;99.90;;;;;;5075855;28;20135;-43
2022/11/06 08:33:50;;;;;;;10.02;4.35;;;9.50;99.90;;;;;;5076095;28;20131;-43
2022/11/06 08:36:16;;;;;;;10.27;4.47;;;9.50;99.90;;;;;;5075715;28;20056;-42
2022/11/06 08:38:42;;;;;;;8.55;4.53;;;9.50;99.90;;;;;;5074039;28;20052;-42
2022/11/06 08:41:10;;;;;;;12.73;5.32;;;9.50;99.90;;;;;;5074500;28;20055;-42
2022/11/06 08:43:36;;;;;;;11.30;5.30;;;9.50;99.90;;;;;;5075608;28;20048;-42
2022/11/06 08:46:06;;;;;;;10.73;4.25;;;9.60;99.90;;;;;;5074662;28;20048;-43
2022/11/06 08:48:33;;;;;;;10.82;4.03;;;9.60;99.90;;;;;;5074447;28;20049;-43
2022/11/06 08:50:58;;;;;;;11.70;4.05;;;9.60;99.90;;;;;;5075438;28;20045;-43
2022/11/06 08:53:24;;;;;;;11.35;4.03;;;9.70;99.90;;;;;;5075485;28;20054;-43
2022/11/06 08:55:50;;;;;;;11.75;4.10;;;9.80;99.90;;;;;;5075394;28;20040;-43
2022/11/06 08:58:16;;;;;;;9.65;3.28;;;9.80;99.90;;;;;;5076063;28;20190;-43
2022/11/06 09:00:42;;;;;;;11.73;3.63;;;9.90;99.90;;;;;;5074135;28;20048;-44
2022/11/06 09:03:13;;;;;;;11.93;3.72;;;9.90;99.90;;;;;;5075611;28;20055;-42
2022/11/06 09:05:40;;;;;;;9.05;3.28;;;10.00;99.90;;;;;;5074605;28;20049;-43
2022/11/06 09:08:06;;;;;;;12.02;3.78;;;10.10;99.90;;;;;;5075116;28;20486;-43
2022/11/06 09:10:32;;;;;;;11.40;4.07;;;10.10;99.90;;;;;;5074706;28;20040;-43
2022/11/06 09:12:58;;;;;;;14.85;3.80;;;10.10;99.90;;;;;;5074374;28;20049;-42
2022/11/06 09:15:24;;;;;;;9.18;3.35;;;10.10;99.90;;;;;;5074971;28;20094;-42
2022/11/06 09:17:50;;;;;;;8.68;3.78;;;10.10;99.90;;;;;;5075794;28;20052;-42
2022/11/06 09:20:18;;;;;;;6.10;2.80;;;10.10;99.90;;;;;;5075488;28;20101;-42
2022/11/06 09:22:44;;;;;;;10.85;2.95;;;10.10;99.90;;;;;;5075164;28;20083;-42
2022/11/06 09:25:11;;;;;;;10.73;3.20;;;10.10;99.90;;;;;;5074834;28;20044;-41
2022/11/06 09:27:47;;;;;;;8.68;2.65;;;10.20;99.90;;;;;;5074827;28;20080;-41
2022/11/06 09:30:16;;;;;;;7.55;2.88;;;10.20;99.90;;;;;;5074614;28;20048;-39
2022/11/06 09:33:01;;;;;;;8.50;2.65;;;10.30;99.90;;;;;;5074642;28;20123;-41
2022/11/06 09:35:30;;;;;;;7.38;2.42;;;10.30;99.90;;;;;;5074448;28;20044;-40
2022/11/06 09:38:03;;;;;;;6.95;2.60;;;10.40;99.90;;;;;;5073614;28;20432;-41
2022/11/06 09:40:39;;;;;;;8.85;2.55;;;10.40;99.90;;;;;;5075385;28;20040;-41
2022/11/06 09:43:20;;;;;;;11.00;2.65;;;10.40;99.90;;;;;;5074570;28;20093;-40
2022/11/06 09:45:47;;;;;;;12.10;3.40;;;10.40;99.90;;;;;;5074755;28;20486;-41
2022/11/06 09:48:26;;;;;;;11.23;2.47;;;10.40;99.90;;;;;;5074066;28;20056;-41
2022/11/06 09:51:00;;;;;;;9.75;2.45;;;10.30;99.90;;;;;;5072876;28;20044;-40
2022/11/06 09:53:38;;;;;;;6.40;1.92;;;10.40;99.90;;;;;;5074345;28;20055;-35
2022/11/06 09:56:05;;;;;;;9.75;2.47;;;10.40;99.90;;;;;;5074904;28;20459;-34
2022/11/06 09:58:36;;;;;;;9.77;2.63;;;10.40;99.90;;;;;;5072641;28;20068;-40
2022/11/06 10:01:15;;;;;;;8.45;2.50;;;10.40;99.90;;;;;;5074471;28;20474;-39
2022/11/06 10:03:50;;;;;;;7.90;3.25;;;10.40;99.90;;;;;;5074444;28;20048;-36
2022/11/06 10:06:21;;;;;;;7.95;2.40;;;10.40;99.90;;;;;;5056463;28;20044;-35
2022/11/06 10:08:48;;;;;;;7.40;2.97;;;10.50;99.90;;;;;;5074470;28;20075;-35
2022/11/06 10:11:13;;;;;;;9.25;2.58;;;10.50;99.90;;;;;;5073022;28;20049;-35
2022/11/06 10:14:01;;;;;;;7.82;2.55;;;10.50;99.90;;;;;;5073959;28;20131;-34
2022/11/06 10:17:02;;;;;;;6.00;2.15;;;10.50;99.90;;;;;;5074258;28;20084;-35
2022/11/06 10:19:33;;;;;;;7.20;2.28;;;10.50;99.90;;;;;;5071730;28;20044;-35
2022/11/06 10:22:24;;;;;;;11.18;2.60;;;10.60;99.90;;;;;;5073526;28;20092;-35
2022/11/06 10:25:18;;;;;;;5.68;2.03;;;10.60;99.90;;;;;;5074732;28;20052;-36
2022/11/06 10:27:57;;;;;;;4.88;1.90;;;10.70;99.90;;;;;;5056234;28;20048;-39
2022/11/06 10:30:23;;;;;;;6.50;2.17;;;10.80;99.90;;;;;;5074018;28;20589;-34
2022/11/06 10:33:07;;;;;;;8.38;2.65;;;10.80;99.90;;;;;;5072777;28;20475;-36
2022/11/06 10:35:41;;;;;;;7.88;2.22;;;10.80;99.90;;;;;;5072502;28;20049;-34
2022/11/06 10:38:13;;;;;;;7.95;2.42;;;10.90;99.90;;;;;;5073718;28;20048;-35
2022/11/06 10:40:42;;;;;;;7.35;2.03;;;11.00;99.90;;;;;;5073929;28;20055;-33
2022/11/06 10:43:31;;;;;;;8.65;2.22;;;11.10;99.90;;;;;;5074412;28;20075;-35
2022/11/06 10:46:18;;;;;;;9.55;2.13;;;11.10;99.90;;;;;;5072537;28;20107;-35
2022/11/06 10:48:48;;;;;;;5.57;2.03;;;11.20;99.90;;;;;;5073592;28;20052;-33
2022/11/06 10:51:32;;;;;;;13.48;2.42;;;11.20;99.90;;;;;;5073601;28;20049;-34
2022/11/06 10:54:07;;;;;;;;;;;11.20;99.90;;;;;;5073004;28;20044;-33
2022/11/06 10:56:41;;;;;;;8.30;2.03;;;11.20;99.90;;;;;;5073541;28;19920;-34
2022/11/06 10:59:08;;;;;;;7.70;2.33;;;11.30;99.90;;;;;;5074339;28;20048;-34
2022/11/06 11:01:33;;;;;;;7.47;1.80;;;11.40;99.90;;;;;;5076650;28;20055;-34
2022/11/06 11:04:00;;;;;;;5.38;1.73;;;11.40;99.90;;;;;;5077527;28;20044;-34
2022/11/06 11:06:26;;;;;;;6.30;1.98;;;11.40;99.90;;;;;;5077570;28;20045;-34
2022/11/06 11:08:51;;;;;;;10.50;3.80;;;11.50;99.90;;;;;;5077321;28;20045;-33
2022/11/06 11:11:21;;;;;;;10.30;2.35;;;11.50;99.90;;;;;;5077677;28;20433;-34
2022/11/06 11:13:50;;;;;;;8.48;2.60;;;11.50;99.90;;;;;;5078143;28;20067;-33
2022/11/06 11:16:36;;;;;;;6.57;2.20;;;11.50;99.90;;;;;;5077314;28;20051;-32
2022/11/06 11:19:25;;;;;;;8.60;2.47;;;11.40;99.90;;;;;;5059716;28;20047;-32
2022/11/06 11:21:53;;;;;;;5.55;2.25;;;11.20;99.90;;;;;;5073336;28;20053;-32
2022/11/06 11:24:19;;;;;;;12.48;2.85;;;11.10;99.90;;;;;;5059551;28;20106;-32
2022/11/06 11:27:12;;;;;;;8.98;2.75;;;11.00;99.90;;;;;;5077636;28;20048;-32
2022/11/06 11:29:44;;;;;;;12.68;3.30;;;11.00;99.90;;;;;;5057091;28;20061;-33
2022/11/06 11:32:14;;;;;;;8.68;1.85;;;10.90;99.90;;;;;;5076309;28;20059;-34
2022/11/06 11:34:46;;;;;;;8.13;2.83;;;10.90;99.90;;;;;;5076005;28;20052;-33
2022/11/06 11:37:30;;;;;;;10.18;3.10;;;10.90;99.90;;;;;;5077743;28;20049;-33
2022/11/06 11:40:35;;;;;;;8.60;2.75;;;10.90;99.90;;;;;;5075604;28;20041;-33
2022/11/06 11:43:26;;;;;;;7.38;3.40;;;10.90;99.90;;;;;;5076102;28;20044;-33
2022/11/06 11:46:11;;;;;;;9.82;2.80;;;10.90;99.90;;;;;;5077069;28;20041;-35
2022/11/06 11:48:45;;;;;;;8.10;2.83;;;10.90;99.90;;;;;;5077511;28;20044;-33
2022/11/06 11:51:20;;;;;;;10.88;2.70;;;11.00;99.90;;;;;;5077476;28;20099;-33
2022/11/06 11:53:46;;;;;;;7.82;2.63;;;11.00;99.90;;;;;;5076598;28;20053;-33
2022/11/06 11:56:17;;;;;;;11.45;2.78;;;11.10;99.90;;;;;;5076255;28;20376;-34
2022/11/06 11:58:57;;;;;;;8.10;2.65;;;11.10;99.90;;;;;;5076566;28;20064;-34
2022/11/06 12:01:37;;;;;;;6.75;3.00;;;11.20;99.90;;;;;;5076444;28;20053;-34
2022/11/06 12:04:22;;;;;;;9.27;2.83;;;11.30;99.90;;;;;;5076274;28;20131;-33
2022/11/06 12:06:53;;;;;;;16.02;2.67;;;11.40;99.90;;;;;;5076402;28;20052;-34
2022/11/06 12:09:19;;;;;;;8.95;2.20;;;11.40;99.90;;;;;;5075870;28;20501;-34
2022/11/06 12:11:48;;;;;;;8.15;2.92;;;11.40;99.90;;;;;;5075819;28;20044;-35
2022/11/06 12:14:34;;;;;;;11.23;2.50;;;11.50;99.90;;;;;;5076197;28;20044;-33
2022/11/06 12:17:06;;;;;;;9.18;1.98;;;11.60;99.90;;;;;;5076215;28;20044;-36
2022/11/06 12:19:34;;;;;;;7.65;2.25;;;11.60;99.90;;;;;;5076698;28;20394;-33
2022/11/06 12:22:17;;;;;;;4.75;1.92;;;11.60;99.90;;;;;;5076030;28;20474;-32
2022/11/06 12:24:53;;;;;;;8.68;2.10;;;11.70;99.90;;;;;;5076039;28;20055;-33
2022/11/06 12:27:26;;;;;;;7.90;2.35;;;11.70;99.90;;;;;;5075038;28;20048;-33
2022/11/06 12:30:12;;;;;;;7.88;1.65;;;11.80;99.90;;;;;;5075709;28;20121;-33
2022/11/06 12:32:50;;;;;;;9.80;1.85;;;11.70;99.90;;;;;;5074914;28;20053;-33
2022/11/06 12:35:31;;;;;;;6.20;1.83;;;11.70;99.90;;;;;;5058939;28;20423;-34
2022/11/06 12:37:57;;;;;;;12.48;1.80;;;11.70;99.90;;;;;;5076078;28;20394;-32
2022/11/06 12:40:40;;;;;;;6.82;1.92;;;11.80;99.90;;;;;;5074780;28;20071;-33
2022/11/06 12:43:27;;;;;;;6.53;1.70;;;11.80;99.90;;;;;;5076313;28;20047;-32
2022/11/06 12:46:02;;;;;;;6.38;1.70;;;11.80;99.90;;;;;;5076195;28;20484;-34
2022/11/06 12:49:01;;;;;;;9.85;1.73;;;11.80;99.90;;;;;;5075671;28;20418;-33
2022/11/06 12:51:49;;;;;;;4.05;1.33;;;11.80;99.90;;;;;;5075636;28;20131;-32
2022/11/06 12:54:38;;;;;;;8.18;1.85;;;11.70;99.90;;;;;;5075126;28;20051;-32
2022/11/06 12:57:18;;;;;;;6.57;1.88;;;11.70;99.90;;;;;;5073999;28;20048;-33
2022/11/06 12:59:50;;;;;;;11.00;2.42;;;11.70;99.90;;;;;;5075346;28;20485;-32
2022/11/06 13:02:53;;;;;;;6.05;1.42;;;11.60;99.90;;;;;;5075288;28;20130;-32
2022/11/06 13:05:53;;;;;;;7.07;2.57;;;11.40;99.90;;;;;;5074166;28;20150;-32
2022/11/06 13:08:56;;;;;;;23.13;11.00;;;11.30;99.90;;;;;;5075759;28;20053;-32
2022/11/06 13:11:28;;;;;;;8.85;1.92;;;11.20;99.90;;;;;;5074487;28;20049;-31
2022/11/06 13:14:47;;;;;;;22.75;12.40;;;11.10;99.90;;;;;;5074093;28;20060;-32
2022/11/06 13:17:29;;;;;;;12.63;6.25;;;11.00;99.90;;;;;;5056722;28;20052;-33
2022/11/06 13:20:00;;;;;;;10.45;2.90;;;11.00;99.90;;;;;;5072635;28;20040;-33
2022/11/06 13:22:38;;;;;;;7.28;2.50;;;11.10;99.90;;;;;;5065725;28;20060;-32
2022/11/06 13:25:18;;;;;;;6.30;3.22;;;11.10;99.90;;;;;;5074842;28;20078;-33